sensor_id;sensor_type;location;lat;lon;timestamp;P1;durP1;ratioP1;P2;durP2;ratioP2
7171;SDS011;3627;46.544;14.944;2023-02-28T00:00:17;12.10;;;8.13;;
7171;SDS011;3627;46.544;14.944;2023-02-28T00:02:45;8.10;;;7.27;;
7171;SDS011;3627;46.544;14.944;2023-02-28T00:05:12;10.20;;;8.33;;
7171;SDS011;3627;46.544;14.944;2023-02-28T00:07:39;12.57;;;8.93;;
7171;SDS011;3627;46.544;14.944;2023-02-28T00:10:07;10.97;;;8.07;;
7171;SDS011;3627;46.544;14.944;2023-02-28T00:12:34;9.43;;;6.77;;
7171;SDS011;3627;46.544;14.944;2023-02-28T00:15:01;9.47;;;7.37;;
7171;SDS011;3627;46.544;14.944;2023-02-28T00:17:28;9.57;;;7.23;;
7171;SDS011;3627;46.544;14.944;2023-02-28T00:19:56;11.57;;;8.00;;
7171;SDS011;3627;46.544;14.944;2023-02-28T00:22:26;11.37;;;7.90;;
7171;SDS011;3627;46.544;14.944;2023-02-28T00:24:53;11.43;;;7.83;;
7171;SDS011;3627;46.544;14.944;2023-02-28T00:27:19;14.00;;;8.60;;
7171;SDS011;3627;46.544;14.944;2023-02-28T00:29:46;12.67;;;8.20;;
7171;SDS011;3627;46.544;14.944;2023-02-28T00:32:12;12.10;;;8.90;;
7171;SDS011;3627;46.544;14.944;2023-02-28T00:34:39;11.17;;;7.47;;
7171;SDS011;3627;46.544;14.944;2023-02-28T00:37:07;12.53;;;9.03;;
7171;SDS011;3627;46.544;14.944;2023-02-28T00:39:35;11.43;;;8.37;;
7171;SDS011;3627;46.544;14.944;2023-02-28T00:42:02;11.70;;;8.23;;
7171;SDS011;3627;46.544;14.944;2023-02-28T00:44:28;9.83;;;7.73;;
7171;SDS011;3627;46.544;14.944;2023-02-28T00:46:55;11.37;;;8.87;;
7171;SDS011;3627;46.544;14.944;2023-02-28T00:49:21;11.57;;;8.57;;
7171;SDS011;3627;46.544;14.944;2023-02-28T00:51:48;13.97;;;9.90;;
7171;SDS011;3627;46.544;14.944;2023-02-28T00:54:16;15.07;;;11.57;;
7171;SDS011;3627;46.544;14.944;2023-02-28T00:56:43;19.17;;;11.93;;
7171;SDS011;3627;46.544;14.944;2023-02-28T00:59:11;15.83;;;11.87;;
7171;SDS011;3627;46.544;14.944;2023-02-28T01:01:37;20.60;;;10.90;;
7171;SDS011;3627;46.544;14.944;2023-02-28T01:04:03;12.77;;;9.13;;
7171;SDS011;3627;46.544;14.944;2023-02-28T01:06:30;24.50;;;13.53;;
7171;SDS011;3627;46.544;14.944;2023-02-28T01:08:56;28.73;;;15.07;;
7171;SDS011;3627;46.544;14.944;2023-02-28T01:11:24;17.40;;;10.93;;
7171;SDS011;3627;46.544;14.944;2023-02-28T01:13:51;28.20;;;16.07;;
7171;SDS011;3627;46.544;14.944;2023-02-28T01:16:17;13.40;;;9.73;;
7171;SDS011;3627;46.544;14.944;2023-02-28T01:18:43;19.93;;;13.27;;
7171;SDS011;3627;46.544;14.944;2023-02-28T01:21:11;23.13;;;13.57;;
7171;SDS011;3627;46.544;14.944;2023-02-28T01:23:38;21.27;;;12.70;;
7171;SDS011;3627;46.544;14.944;2023-02-28T01:26:05;21.10;;;11.60;;
7171;SDS011;3627;46.544;14.944;2023-02-28T01:28:33;15.13;;;10.70;;
7171;SDS011;3627;46.544;14.944;2023-02-28T01:30:59;15.43;;;9.90;;
7171;SDS011;3627;46.544;14.944;2023-02-28T01:33:26;17.57;;;10.93;;
7171;SDS011;3627;46.544;14.944;2023-02-28T01:35:57;18.30;;;11.77;;
7171;SDS011;3627;46.544;14.944;2023-02-28T01:38:24;13.73;;;11.47;;
7171;SDS011;3627;46.544;14.944;2023-02-28T01:40:50;23.83;;;12.23;;
7171;SDS011;3627;46.544;14.944;2023-02-28T01:43:20;15.60;;;10.57;;
7171;SDS011;3627;46.544;14.944;2023-02-28T01:45:48;30.83;;;16.43;;
7171;SDS011;3627;46.544;14.944;2023-02-28T01:48:14;63.20;;;33.80;;
7171;SDS011;3627;46.544;14.944;2023-02-28T01:50:42;215.10;;;92.53;;
7171;SDS011;3627;46.544;14.944;2023-02-28T01:53:10;228.83;;;103.73;;
7171;SDS011;3627;46.544;14.944;2023-02-28T01:55:38;107.47;;;54.53;;
7171;SDS011;3627;46.544;14.944;2023-02-28T01:58:06;102.23;;;45.20;;
7171;SDS011;3627;46.544;14.944;2023-02-28T02:00:34;75.73;;;36.67;;
7171;SDS011;3627;46.544;14.944;2023-02-28T02:03:04;54.57;;;26.13;;
7171;SDS011;3627;46.544;14.944;2023-02-28T02:05:32;30.80;;;16.90;;
7171;SDS011;3627;46.544;14.944;2023-02-28T02:08:01;18.80;;;12.67;;
7171;SDS011;3627;46.544;14.944;2023-02-28T02:10:29;25.70;;;14.33;;
7171;SDS011;3627;46.544;14.944;2023-02-28T02:13:02;10.23;;;8.10;;
7171;SDS011;3627;46.544;14.944;2023-02-28T02:15:32;10.07;;;7.57;;
7171;SDS011;3627;46.544;14.944;2023-02-28T02:18:02;46.13;;;20.93;;
7171;SDS011;3627;46.544;14.944;2023-02-28T02:20:47;86.73;;;36.03;;
7171;SDS011;3627;46.544;14.944;2023-02-28T02:26:04;18.87;;;11.73;;
7171;SDS011;3627;46.544;14.944;2023-02-28T02:28:37;14.60;;;9.77;;
7171;SDS011;3627;46.544;14.944;2023-02-28T02:36:56;11.43;;;9.00;;
7171;SDS011;3627;46.544;14.944;2023-02-28T02:39:27;9.80;;;8.27;;
7171;SDS011;3627;46.544;14.944;2023-02-28T02:41:58;14.73;;;9.40;;
7171;SDS011;3627;46.544;14.944;2023-02-28T02:44:26;11.97;;;9.13;;
7171;SDS011;3627;46.544;14.944;2023-02-28T02:46:54;12.07;;;8.63;;
7171;SDS011;3627;46.544;14.944;2023-02-28T02:49:22;10.13;;;8.00;;
7171;SDS011;3627;46.544;14.944;2023-02-28T02:51:50;7.80;;;6.90;;
7171;SDS011;3627;46.544;14.944;2023-02-28T02:54:19;8.80;;;6.80;;
7171;SDS011;3627;46.544;14.944;2023-02-28T02:56:47;8.07;;;6.90;;
7171;SDS011;3627;46.544;14.944;2023-02-28T02:59:15;8.47;;;7.47;;
7171;SDS011;3627;46.544;14.944;2023-02-28T03:01:46;8.73;;;7.27;;
7171;SDS011;3627;46.544;14.944;2023-02-28T03:04:16;10.50;;;7.33;;
7171;SDS011;3627;46.544;14.944;2023-02-28T03:06:44;9.77;;;6.57;;
7171;SDS011;3627;46.544;14.944;2023-02-28T03:09:11;7.67;;;6.87;;
7171;SDS011;3627;46.544;14.944;2023-02-28T03:11:39;9.23;;;6.33;;
7171;SDS011;3627;46.544;14.944;2023-02-28T03:14:09;7.93;;;7.10;;
7171;SDS011;3627;46.544;14.944;2023-02-28T03:16:42;9.57;;;7.00;;
7171;SDS011;3627;46.544;14.944;2023-02-28T03:19:24;8.63;;;6.43;;
7171;SDS011;3627;46.544;14.944;2023-02-28T03:21:58;7.97;;;7.20;;
7171;SDS011;3627;46.544;14.944;2023-02-28T03:24:27;9.37;;;6.80;;
7171;SDS011;3627;46.544;14.944;2023-02-28T03:27:02;7.60;;;6.90;;
7171;SDS011;3627;46.544;14.944;2023-02-28T03:29:32;8.23;;;7.40;;
7171;SDS011;3627;46.544;14.944;2023-02-28T03:31:59;8.30;;;7.40;;
7171;SDS011;3627;46.544;14.944;2023-02-28T03:34:29;9.70;;;7.30;;
7171;SDS011;3627;46.544;14.944;2023-02-28T03:36:59;7.53;;;6.83;;
7171;SDS011;3627;46.544;14.944;2023-02-28T03:39:28;7.90;;;7.00;;
7171;SDS011;3627;46.544;14.944;2023-02-28T03:41:58;8.10;;;7.00;;
7171;SDS011;3627;46.544;14.944;2023-02-28T03:44:27;8.83;;;6.90;;
7171;SDS011;3627;46.544;14.944;2023-02-28T03:46:56;7.30;;;6.53;;
7171;SDS011;3627;46.544;14.944;2023-02-28T03:49:24;9.00;;;7.63;;
7171;SDS011;3627;46.544;14.944;2023-02-28T03:51:52;8.07;;;6.97;;
7171;SDS011;3627;46.544;14.944;2023-02-28T03:54:22;9.90;;;7.13;;
7171;SDS011;3627;46.544;14.944;2023-02-28T03:56:51;9.20;;;6.60;;
7171;SDS011;3627;46.544;14.944;2023-02-28T03:59:20;8.17;;;6.93;;
7171;SDS011;3627;46.544;14.944;2023-02-28T04:01:49;9.10;;;7.07;;
7171;SDS011;3627;46.544;14.944;2023-02-28T04:04:16;9.73;;;7.70;;
7171;SDS011;3627;46.544;14.944;2023-02-28T04:06:44;10.33;;;7.40;;
7171;SDS011;3627;46.544;14.944;2023-02-28T04:09:11;18.43;;;10.07;;
7171;SDS011;3627;46.544;14.944;2023-02-28T04:11:39;22.17;;;11.43;;
7171;SDS011;3627;46.544;14.944;2023-02-28T04:14:06;11.73;;;7.80;;
7171;SDS011;3627;46.544;14.944;2023-02-28T04:16:34;8.23;;;7.30;;
7171;SDS011;3627;46.544;14.944;2023-02-28T04:19:02;8.13;;;7.07;;
7171;SDS011;3627;46.544;14.944;2023-02-28T04:21:30;9.23;;;7.03;;
7171;SDS011;3627;46.544;14.944;2023-02-28T04:23:57;8.80;;;6.90;;
7171;SDS011;3627;46.544;14.944;2023-02-28T04:26:26;9.07;;;7.77;;
7171;SDS011;3627;46.544;14.944;2023-02-28T04:28:53;8.40;;;7.33;;
7171;SDS011;3627;46.544;14.944;2023-02-28T04:31:20;10.40;;;7.77;;
7171;SDS011;3627;46.544;14.944;2023-02-28T04:33:46;10.37;;;7.30;;
7171;SDS011;3627;46.544;14.944;2023-02-28T04:36:14;9.00;;;7.03;;
7171;SDS011;3627;46.544;14.944;2023-02-28T04:38:42;10.30;;;6.67;;
7171;SDS011;3627;46.544;14.944;2023-02-28T04:41:09;9.77;;;7.30;;
7171;SDS011;3627;46.544;14.944;2023-02-28T04:43:35;8.73;;;6.67;;
7171;SDS011;3627;46.544;14.944;2023-02-28T04:46:02;8.77;;;7.10;;
7171;SDS011;3627;46.544;14.944;2023-02-28T04:48:30;6.90;;;6.30;;
7171;SDS011;3627;46.544;14.944;2023-02-28T04:50:59;8.67;;;7.13;;
7171;SDS011;3627;46.544;14.944;2023-02-28T04:53:27;12.33;;;7.93;;
7171;SDS011;3627;46.544;14.944;2023-02-28T04:55:54;13.63;;;10.07;;
7171;SDS011;3627;46.544;14.944;2023-02-28T04:58:20;13.67;;;9.27;;
7171;SDS011;3627;46.544;14.944;2023-02-28T05:00:48;12.10;;;8.87;;
7171;SDS011;3627;46.544;14.944;2023-02-28T05:03:14;15.83;;;9.67;;
7171;SDS011;3627;46.544;14.944;2023-02-28T05:05:40;13.83;;;9.07;;
7171;SDS011;3627;46.544;14.944;2023-02-28T05:08:07;11.07;;;7.73;;
7171;SDS011;3627;46.544;14.944;2023-02-28T05:10:36;10.00;;;8.60;;
7171;SDS011;3627;46.544;14.944;2023-02-28T05:13:02;20.23;;;11.73;;
7171;SDS011;3627;46.544;14.944;2023-02-28T05:15:29;21.47;;;13.00;;
7171;SDS011;3627;46.544;14.944;2023-02-28T05:17:55;17.30;;;12.30;;
7171;SDS011;3627;46.544;14.944;2023-02-28T05:20:21;10.00;;;9.00;;
7171;SDS011;3627;46.544;14.944;2023-02-28T05:22:49;11.70;;;7.93;;
7171;SDS011;3627;46.544;14.944;2023-02-28T05:25:16;11.30;;;7.20;;
7171;SDS011;3627;46.544;14.944;2023-02-28T05:27:45;9.97;;;8.00;;
7171;SDS011;3627;46.544;14.944;2023-02-28T05:30:11;10.63;;;8.60;;
7171;SDS011;3627;46.544;14.944;2023-02-28T05:32:38;8.90;;;7.87;;
7171;SDS011;3627;46.544;14.944;2023-02-28T05:35:08;11.53;;;7.70;;
7171;SDS011;3627;46.544;14.944;2023-02-28T05:37:34;10.43;;;8.50;;
7171;SDS011;3627;46.544;14.944;2023-02-28T05:40:01;12.23;;;8.40;;
7171;SDS011;3627;46.544;14.944;2023-02-28T05:42:31;9.87;;;8.60;;
7171;SDS011;3627;46.544;14.944;2023-02-28T05:44:58;9.93;;;7.90;;
7171;SDS011;3627;46.544;14.944;2023-02-28T05:47:25;12.33;;;8.23;;
7171;SDS011;3627;46.544;14.944;2023-02-28T05:49:51;13.80;;;10.50;;
7171;SDS011;3627;46.544;14.944;2023-02-28T05:52:17;12.60;;;9.07;;
7171;SDS011;3627;46.544;14.944;2023-02-28T05:54:44;11.60;;;8.77;;
7171;SDS011;3627;46.544;14.944;2023-02-28T05:57:12;10.40;;;8.17;;
7171;SDS011;3627;46.544;14.944;2023-02-28T05:59:38;10.70;;;8.47;;
7171;SDS011;3627;46.544;14.944;2023-02-28T06:02:06;13.17;;;10.07;;
7171;SDS011;3627;46.544;14.944;2023-02-28T06:04:37;16.70;;;10.10;;
7171;SDS011;3627;46.544;14.944;2023-02-28T06:07:03;15.47;;;9.80;;
7171;SDS011;3627;46.544;14.944;2023-02-28T06:09:29;15.00;;;10.10;;
7171;SDS011;3627;46.544;14.944;2023-02-28T06:11:57;15.27;;;9.80;;
7171;SDS011;3627;46.544;14.944;2023-02-28T06:14:23;13.57;;;9.70;;
7171;SDS011;3627;46.544;14.944;2023-02-28T06:16:50;11.60;;;9.43;;
7171;SDS011;3627;46.544;14.944;2023-02-28T06:19:18;13.20;;;9.40;;
7171;SDS011;3627;46.544;14.944;2023-02-28T06:21:44;12.83;;;9.47;;
7171;SDS011;3627;46.544;14.944;2023-02-28T06:24:10;11.83;;;8.27;;
7171;SDS011;3627;46.544;14.944;2023-02-28T06:26:37;13.57;;;9.20;;
7171;SDS011;3627;46.544;14.944;2023-02-28T06:29:03;12.33;;;8.77;;
7171;SDS011;3627;46.544;14.944;2023-02-28T06:31:30;10.00;;;8.80;;
7171;SDS011;3627;46.544;14.944;2023-02-28T06:33:56;12.43;;;8.70;;
7171;SDS011;3627;46.544;14.944;2023-02-28T06:36:24;11.63;;;8.90;;
7171;SDS011;3627;46.544;14.944;2023-02-28T06:38:50;13.93;;;8.27;;
7171;SDS011;3627;46.544;14.944;2023-02-28T06:41:20;12.10;;;7.70;;
7171;SDS011;3627;46.544;14.944;2023-02-28T06:43:46;12.73;;;8.60;;
7171;SDS011;3627;46.544;14.944;2023-02-28T06:46:13;10.17;;;7.33;;
7171;SDS011;3627;46.544;14.944;2023-02-28T06:48:40;9.93;;;7.60;;
7171;SDS011;3627;46.544;14.944;2023-02-28T06:51:07;8.47;;;7.50;;
7171;SDS011;3627;46.544;14.944;2023-02-28T06:53:35;10.40;;;7.77;;
7171;SDS011;3627;46.544;14.944;2023-02-28T06:56:03;8.70;;;7.80;;
7171;SDS011;3627;46.544;14.944;2023-02-28T06:58:30;10.60;;;7.23;;
7171;SDS011;3627;46.544;14.944;2023-02-28T07:00:56;9.60;;;6.83;;
7171;SDS011;3627;46.544;14.944;2023-02-28T07:03:23;9.80;;;8.17;;
7171;SDS011;3627;46.544;14.944;2023-02-28T07:05:50;10.37;;;7.57;;
7171;SDS011;3627;46.544;14.944;2023-02-28T07:08:16;8.90;;;7.97;;
7171;SDS011;3627;46.544;14.944;2023-02-28T07:10:44;10.07;;;8.33;;
7171;SDS011;3627;46.544;14.944;2023-02-28T07:13:11;9.13;;;7.27;;
7171;SDS011;3627;46.544;14.944;2023-02-28T07:15:37;12.33;;;8.50;;
7171;SDS011;3627;46.544;14.944;2023-02-28T07:18:04;10.77;;;7.63;;
7171;SDS011;3627;46.544;14.944;2023-02-28T07:20:30;9.40;;;7.97;;
7171;SDS011;3627;46.544;14.944;2023-02-28T07:22:56;10.03;;;8.00;;
7171;SDS011;3627;46.544;14.944;2023-02-28T07:25:23;11.47;;;7.43;;
7171;SDS011;3627;46.544;14.944;2023-02-28T07:27:51;11.53;;;7.27;;
7171;SDS011;3627;46.544;14.944;2023-02-28T07:30:18;10.70;;;8.10;;
7171;SDS011;3627;46.544;14.944;2023-02-28T07:32:44;11.57;;;7.13;;
7171;SDS011;3627;46.544;14.944;2023-02-28T07:35:10;9.87;;;7.60;;
7171;SDS011;3627;46.544;14.944;2023-02-28T07:37:37;12.03;;;8.03;;
7171;SDS011;3627;46.544;14.944;2023-02-28T07:40:03;9.13;;;7.27;;
7171;SDS011;3627;46.544;14.944;2023-02-28T07:42:33;10.00;;;7.97;;
7171;SDS011;3627;46.544;14.944;2023-02-28T07:45:01;10.27;;;7.80;;
7171;SDS011;3627;46.544;14.944;2023-02-28T07:47:28;12.87;;;8.63;;
7171;SDS011;3627;46.544;14.944;2023-02-28T07:49:55;10.40;;;7.70;;
7171;SDS011;3627;46.544;14.944;2023-02-28T07:52:21;10.27;;;7.77;;
7171;SDS011;3627;46.544;14.944;2023-02-28T07:54:49;10.73;;;8.17;;
7171;SDS011;3627;46.544;14.944;2023-02-28T07:57:16;10.97;;;8.13;;
7171;SDS011;3627;46.544;14.944;2023-02-28T07:59:43;10.73;;;8.03;;
7171;SDS011;3627;46.544;14.944;2023-02-28T08:02:11;9.87;;;7.43;;
7171;SDS011;3627;46.544;14.944;2023-02-28T08:04:38;9.47;;;7.70;;
7171;SDS011;3627;46.544;14.944;2023-02-28T08:07:04;8.77;;;7.00;;
7171;SDS011;3627;46.544;14.944;2023-02-28T08:09:31;8.30;;;7.07;;
7171;SDS011;3627;46.544;14.944;2023-02-28T08:11:58;9.00;;;7.13;;
7171;SDS011;3627;46.544;14.944;2023-02-28T08:14:24;11.63;;;7.67;;
7171;SDS011;3627;46.544;14.944;2023-02-28T08:16:50;36.03;;;21.17;;
7171;SDS011;3627;46.544;14.944;2023-02-28T08:19:18;15.80;;;10.53;;
7171;SDS011;3627;46.544;14.944;2023-02-28T08:21:44;10.27;;;7.63;;
7171;SDS011;3627;46.544;14.944;2023-02-28T08:24:11;11.73;;;8.37;;
7171;SDS011;3627;46.544;14.944;2023-02-28T08:26:37;13.03;;;8.50;;
7171;SDS011;3627;46.544;14.944;2023-02-28T08:29:03;10.73;;;8.77;;
7171;SDS011;3627;46.544;14.944;2023-02-28T08:31:30;10.33;;;7.87;;
7171;SDS011;3627;46.544;14.944;2023-02-28T08:33:56;8.33;;;7.33;;
7171;SDS011;3627;46.544;14.944;2023-02-28T08:36:25;10.93;;;8.07;;
7171;SDS011;3627;46.544;14.944;2023-02-28T08:38:53;10.20;;;7.57;;
7171;SDS011;3627;46.544;14.944;2023-02-28T08:41:20;8.47;;;7.27;;
7171;SDS011;3627;46.544;14.944;2023-02-28T08:43:46;8.83;;;7.50;;
7171;SDS011;3627;46.544;14.944;2023-02-28T08:46:13;9.93;;;7.63;;
7171;SDS011;3627;46.544;14.944;2023-02-28T08:48:39;9.80;;;7.73;;
7171;SDS011;3627;46.544;14.944;2023-02-28T08:51:07;9.43;;;7.87;;
7171;SDS011;3627;46.544;14.944;2023-02-28T08:53:35;10.10;;;7.40;;
7171;SDS011;3627;46.544;14.944;2023-02-28T08:56:03;8.67;;;7.77;;
7171;SDS011;3627;46.544;14.944;2023-02-28T08:58:30;8.70;;;7.80;;
7171;SDS011;3627;46.544;14.944;2023-02-28T09:00:56;8.27;;;7.43;;
7171;SDS011;3627;46.544;14.944;2023-02-28T09:03:23;10.23;;;7.57;;
7171;SDS011;3627;46.544;14.944;2023-02-28T09:05:53;8.90;;;7.77;;
7171;SDS011;3627;46.544;14.944;2023-02-28T09:08:23;11.40;;;8.33;;
7171;SDS011;3627;46.544;14.944;2023-02-28T09:10:51;10.37;;;8.50;;
7171;SDS011;3627;46.544;14.944;2023-02-28T09:13:18;11.63;;;8.30;;
7171;SDS011;3627;46.544;14.944;2023-02-28T09:15:45;10.70;;;8.20;;
7171;SDS011;3627;46.544;14.944;2023-02-28T09:18:11;11.73;;;7.90;;
7171;SDS011;3627;46.544;14.944;2023-02-28T09:20:38;13.83;;;10.57;;
7171;SDS011;3627;46.544;14.944;2023-02-28T09:23:05;22.73;;;11.47;;
7171;SDS011;3627;46.544;14.944;2023-02-28T09:25:31;10.83;;;7.30;;
7171;SDS011;3627;46.544;14.944;2023-02-28T09:27:59;50.93;;;20.83;;
7171;SDS011;3627;46.544;14.944;2023-02-28T09:30:25;15.30;;;10.67;;
7171;SDS011;3627;46.544;14.944;2023-02-28T09:32:52;19.47;;;10.83;;
7171;SDS011;3627;46.544;14.944;2023-02-28T09:35:18;53.20;;;22.43;;
7171;SDS011;3627;46.544;14.944;2023-02-28T09:37:46;16.83;;;10.60;;
7171;SDS011;3627;46.544;14.944;2023-02-28T09:40:12;54.83;;;22.90;;
7171;SDS011;3627;46.544;14.944;2023-02-28T09:42:39;64.00;;;26.40;;
7171;SDS011;3627;46.544;14.944;2023-02-28T09:45:10;35.40;;;16.20;;
7171;SDS011;3627;46.544;14.944;2023-02-28T09:47:39;14.63;;;10.03;;
7171;SDS011;3627;46.544;14.944;2023-02-28T09:50:11;148.23;;;54.07;;
7171;SDS011;3627;46.544;14.944;2023-02-28T09:52:40;13.53;;;8.80;;
7171;SDS011;3627;46.544;14.944;2023-02-28T09:55:15;11.67;;;7.60;;
7171;SDS011;3627;46.544;14.944;2023-02-28T09:57:44;9.13;;;7.77;;
7171;SDS011;3627;46.544;14.944;2023-02-28T10:00:14;23.20;;;12.93;;
7171;SDS011;3627;46.544;14.944;2023-02-28T10:02:47;22.93;;;12.17;;
7171;SDS011;3627;46.544;14.944;2023-02-28T10:05:15;14.00;;;9.50;;
7171;SDS011;3627;46.544;14.944;2023-02-28T10:07:47;13.83;;;8.87;;
7171;SDS011;3627;46.544;14.944;2023-02-28T10:10:18;15.07;;;9.50;;
7171;SDS011;3627;46.544;14.944;2023-02-28T10:12:45;12.73;;;8.80;;
7171;SDS011;3627;46.544;14.944;2023-02-28T10:15:14;10.77;;;7.60;;
7171;SDS011;3627;46.544;14.944;2023-02-28T10:17:42;10.35;;;8.38;;
7171;SDS011;3627;46.544;14.944;2023-02-28T10:20:10;15.70;;;8.30;;
7171;SDS011;3627;46.544;14.944;2023-02-28T10:22:40;11.50;;;8.23;;
7171;SDS011;3627;46.544;14.944;2023-02-28T10:25:15;8.00;;;7.20;;
7171;SDS011;3627;46.544;14.944;2023-02-28T10:27:42;15.15;;;9.38;;
7171;SDS011;3627;46.544;14.944;2023-02-28T10:30:09;32.25;;;18.00;;
7171;SDS011;3627;46.544;14.944;2023-02-28T10:32:39;13.38;;;9.40;;
7171;SDS011;3627;46.544;14.944;2023-02-28T10:35:09;12.30;;;7.17;;
7171;SDS011;3627;46.544;14.944;2023-02-28T10:37:37;16.45;;;11.98;;
7171;SDS011;3627;46.544;14.944;2023-02-28T10:40:04;12.90;;;8.38;;
7171;SDS011;3627;46.544;14.944;2023-02-28T10:42:31;9.95;;;8.23;;
7171;SDS011;3627;46.544;14.944;2023-02-28T10:45:10;17.33;;;11.27;;
7171;SDS011;3627;46.544;14.944;2023-02-28T10:47:38;14.82;;;8.43;;
7171;SDS011;3627;46.544;14.944;2023-02-28T10:50:09;10.57;;;7.17;;
7171;SDS011;3627;46.544;14.944;2023-02-28T10:52:52;12.93;;;9.10;;
7171;SDS011;3627;46.544;14.944;2023-02-28T10:55:20;9.80;;;8.05;;
7171;SDS011;3627;46.544;14.944;2023-02-28T10:57:47;10.88;;;7.72;;
7171;SDS011;3627;46.544;14.944;2023-02-28T11:00:15;10.70;;;7.83;;
7171;SDS011;3627;46.544;14.944;2023-02-28T11:02:42;10.55;;;8.60;;
7171;SDS011;3627;46.544;14.944;2023-02-28T11:05:23;10.68;;;8.38;;
7171;SDS011;3627;46.544;14.944;2023-02-28T11:07:51;13.02;;;8.43;;
7171;SDS011;3627;46.544;14.944;2023-02-28T11:10:18;11.07;;;7.93;;
7171;SDS011;3627;46.544;14.944;2023-02-28T11:12:45;10.85;;;8.20;;
7171;SDS011;3627;46.544;14.944;2023-02-28T11:15:19;16.40;;;11.63;;
7171;SDS011;3627;46.544;14.944;2023-02-28T11:17:52;13.63;;;8.88;;
7171;SDS011;3627;46.544;14.944;2023-02-28T11:20:20;11.07;;;8.85;;
7171;SDS011;3627;46.544;14.944;2023-02-28T11:22:49;11.80;;;8.15;;
7171;SDS011;3627;46.544;14.944;2023-02-28T11:25:20;10.60;;;8.18;;
7171;SDS011;3627;46.544;14.944;2023-02-28T11:27:47;10.43;;;7.82;;
7171;SDS011;3627;46.544;14.944;2023-02-28T11:30:28;10.63;;;8.77;;
7171;SDS011;3627;46.544;14.944;2023-02-28T11:32:54;10.30;;;7.47;;
7171;SDS011;3627;46.544;14.944;2023-02-28T11:35:23;10.10;;;8.20;;
7171;SDS011;3627;46.544;14.944;2023-02-28T11:37:52;10.00;;;7.65;;
7171;SDS011;3627;46.544;14.944;2023-02-28T11:40:19;11.55;;;8.65;;
7171;SDS011;3627;46.544;14.944;2023-02-28T11:42:50;13.60;;;8.60;;
7171;SDS011;3627;46.544;14.944;2023-02-28T11:45:25;11.27;;;8.95;;
7171;SDS011;3627;46.544;14.944;2023-02-28T11:47:57;13.75;;;8.23;;
7171;SDS011;3627;46.544;14.944;2023-02-28T11:50:40;12.60;;;9.15;;
7171;SDS011;3627;46.544;14.944;2023-02-28T11:53:14;10.32;;;8.15;;
7171;SDS011;3627;46.544;14.944;2023-02-28T11:55:44;10.73;;;8.32;;
7171;SDS011;3627;46.544;14.944;2023-02-28T11:58:17;8.90;;;7.47;;
7171;SDS011;3627;46.544;14.944;2023-02-28T12:00:51;12.63;;;9.35;;
7171;SDS011;3627;46.544;14.944;2023-02-28T12:03:23;11.57;;;8.93;;
7171;SDS011;3627;46.544;14.944;2023-02-28T12:05:54;12.75;;;9.10;;
7171;SDS011;3627;46.544;14.944;2023-02-28T12:08:30;11.80;;;8.48;;
7171;SDS011;3627;46.544;14.944;2023-02-28T12:11:06;11.88;;;8.77;;
7171;SDS011;3627;46.544;14.944;2023-02-28T12:13:37;14.07;;;9.20;;
7171;SDS011;3627;46.544;14.944;2023-02-28T12:21:40;14.18;;;9.20;;
7171;SDS011;3627;46.544;14.944;2023-02-28T12:24:17;11.70;;;8.27;;
7171;SDS011;3627;46.544;14.944;2023-02-28T12:26:48;10.55;;;8.13;;
7171;SDS011;3627;46.544;14.944;2023-02-28T12:29:16;10.73;;;8.00;;
7171;SDS011;3627;46.544;14.944;2023-02-28T12:31:45;11.77;;;8.73;;
7171;SDS011;3627;46.544;14.944;2023-02-28T12:34:15;12.25;;;8.05;;
7171;SDS011;3627;46.544;14.944;2023-02-28T12:36:42;14.82;;;8.43;;
7171;SDS011;3627;46.544;14.944;2023-02-28T12:39:10;11.55;;;8.30;;
7171;SDS011;3627;46.544;14.944;2023-02-28T12:41:41;10.93;;;8.63;;
7171;SDS011;3627;46.544;14.944;2023-02-28T12:44:09;11.07;;;8.93;;
7171;SDS011;3627;46.544;14.944;2023-02-28T12:46:38;13.40;;;9.27;;
7171;SDS011;3627;46.544;14.944;2023-02-28T12:49:08;10.52;;;8.27;;
7171;SDS011;3627;46.544;14.944;2023-02-28T12:51:35;16.30;;;11.70;;
7171;SDS011;3627;46.544;14.944;2023-02-28T12:54:04;23.38;;;17.67;;
7171;SDS011;3627;46.544;14.944;2023-02-28T12:56:35;13.82;;;11.75;;
7171;SDS011;3627;46.544;14.944;2023-02-28T12:59:05;11.45;;;8.82;;
7171;SDS011;3627;46.544;14.944;2023-02-28T13:01:42;9.65;;;8.48;;
7171;SDS011;3627;46.544;14.944;2023-02-28T13:04:33;11.65;;;8.27;;
7171;SDS011;3627;46.544;14.944;2023-02-28T13:07:20;15.88;;;9.68;;
7171;SDS011;3627;46.544;14.944;2023-02-28T13:09:51;16.42;;;10.45;;
7171;SDS011;3627;46.544;14.944;2023-02-28T13:12:18;12.77;;;9.55;;
7171;SDS011;3627;46.544;14.944;2023-02-28T13:14:46;12.80;;;9.10;;
7171;SDS011;3627;46.544;14.944;2023-02-28T13:17:17;20.27;;;12.43;;
7171;SDS011;3627;46.544;14.944;2023-02-28T13:19:45;19.52;;;12.95;;
7171;SDS011;3627;46.544;14.944;2023-02-28T13:22:17;12.70;;;9.07;;
7171;SDS011;3627;46.544;14.944;2023-02-28T13:24:46;14.45;;;8.77;;
7171;SDS011;3627;46.544;14.944;2023-02-28T13:29:58;15.18;;;9.10;;
7171;SDS011;3627;46.544;14.944;2023-02-28T13:32:29;13.23;;;9.05;;
7171;SDS011;3627;46.544;14.944;2023-02-28T13:37:42;14.82;;;9.48;;
7171;SDS011;3627;46.544;14.944;2023-02-28T13:42:53;17.63;;;10.70;;
7171;SDS011;3627;46.544;14.944;2023-02-28T13:45:22;12.75;;;10.15;;
7171;SDS011;3627;46.544;14.944;2023-02-28T13:47:53;13.20;;;9.00;;
7171;SDS011;3627;46.544;14.944;2023-02-28T13:50:24;16.42;;;10.32;;
7171;SDS011;3627;46.544;14.944;2023-02-28T13:52:56;13.77;;;9.65;;
7171;SDS011;3627;46.544;14.944;2023-02-28T13:55:24;13.35;;;8.65;;
7171;SDS011;3627;46.544;14.944;2023-02-28T13:57:56;14.73;;;10.48;;
7171;SDS011;3627;46.544;14.944;2023-02-28T14:00:31;12.15;;;8.93;;
7171;SDS011;3627;46.544;14.944;2023-02-28T14:03:10;17.75;;;10.35;;
7171;SDS011;3627;46.544;14.944;2023-02-28T14:05:41;16.70;;;10.20;;
7171;SDS011;3627;46.544;14.944;2023-02-28T14:08:10;13.60;;;10.32;;
7171;SDS011;3627;46.544;14.944;2023-02-28T14:10:41;13.90;;;9.82;;
7171;SDS011;3627;46.544;14.944;2023-02-28T14:13:13;12.63;;;10.02;;
7171;SDS011;3627;46.544;14.944;2023-02-28T14:15:44;15.43;;;11.88;;
7171;SDS011;3627;46.544;14.944;2023-02-28T14:18:17;11.98;;;9.40;;
7171;SDS011;3627;46.544;14.944;2023-02-28T14:20:45;12.02;;;9.25;;
7171;SDS011;3627;46.544;14.944;2023-02-28T14:23:13;16.27;;;10.40;;
7171;SDS011;3627;46.544;14.944;2023-02-28T14:25:43;16.52;;;10.38;;
7171;SDS011;3627;46.544;14.944;2023-02-28T14:28:14;17.35;;;9.90;;
7171;SDS011;3627;46.544;14.944;2023-02-28T14:30:48;17.73;;;9.75;;
7171;SDS011;3627;46.544;14.944;2023-02-28T14:33:20;15.18;;;10.25;;
7171;SDS011;3627;46.544;14.944;2023-02-28T14:38:35;15.38;;;9.82;;
7171;SDS011;3627;46.544;14.944;2023-02-28T14:41:03;15.27;;;8.40;;
7171;SDS011;3627;46.544;14.944;2023-02-28T14:43:31;13.65;;;9.93;;
7171;SDS011;3627;46.544;14.944;2023-02-28T14:45:59;13.32;;;9.65;;
7171;SDS011;3627;46.544;14.944;2023-02-28T14:48:26;13.07;;;9.10;;
7171;SDS011;3627;46.544;14.944;2023-02-28T14:50:54;13.55;;;11.30;;
7171;SDS011;3627;46.544;14.944;2023-02-28T14:53:22;12.40;;;8.95;;
7171;SDS011;3627;46.544;14.944;2023-02-28T14:55:49;12.77;;;9.95;;
7171;SDS011;3627;46.544;14.944;2023-02-28T14:58:22;17.70;;;10.93;;
7171;SDS011;3627;46.544;14.944;2023-02-28T15:00:49;18.85;;;10.93;;
7171;SDS011;3627;46.544;14.944;2023-02-28T15:03:19;12.00;;;9.10;;
7171;SDS011;3627;46.544;14.944;2023-02-28T15:05:51;15.10;;;10.65;;
7171;SDS011;3627;46.544;14.944;2023-02-28T15:08:18;16.25;;;10.50;;
7171;SDS011;3627;46.544;14.944;2023-02-28T15:10:45;18.08;;;12.63;;
7171;SDS011;3627;46.544;14.944;2023-02-28T15:13:12;15.00;;;10.07;;
7171;SDS011;3627;46.544;14.944;2023-02-28T15:15:43;15.00;;;8.57;;
7171;SDS011;3627;46.544;14.944;2023-02-28T15:18:13;17.70;;;9.55;;
7171;SDS011;3627;46.544;14.944;2023-02-28T15:20:43;16.10;;;10.32;;